Morysville, Pennsylvania
Current Conditions -  °F | °C
As of 3:54 PM on Friday 28 Nov 2014 (Local Time) from KPTW Reporting Station
Clear Clear  
Wind Chill: 25°   Ceiling: Unl
Heat Index: 31°   Visibility: 10mi
Dew Point: 17°   Wind: 6mph
Humidity: 57%   Direction: 300°WNW
Pressure: 30.24"   Gusts: NA
Location:  40.3481°N, 75.6818°W
Report Text: KPTW 282054Z AUTO 30005KT 10SM CLR M01/M08 A3024 RMK AO2 SLP241 T10061083 53006
Loading
Personal Weather Stations






























Interactive Weather Map New forecast layout! Learn more

10-Day Weather Forecast

Advertisements
Track Severe Weather on mobile